Terminal Aerodrome Forecast
Issued by NWS

Home | Current Version | Previous Version | Text Only | Print | Product List | Glossary On
Versions: 1 2 3 4 5 6 7 8 9 10 11 12 13 14 15 16 17
000
FTUS41 KGYX 180538
TAFPSM
TAF
KPSM 180538Z 1806/1906 VRB03KT P6SM SKC
     FM181300 31007KT P6SM FEW060 SCT100
     FM181700 32008KT P6SM SCT060 BKN100
     FM190000 35009KT P6SM SKC=

USA.gov is the U.S. government's official web portal to all federal, state and local government web resources and services.